sensor_id;sensor_type;location;lat;lon;timestamp;P1;durP1;ratioP1;P2;durP2;ratioP2
1140;SDS011;559;48.628;8.924;2023-04-06T00:02:09;92.45;;;89.32;;
1140;SDS011;559;48.628;8.924;2023-04-06T00:04:36;84.32;;;81.82;;
1140;SDS011;559;48.628;8.924;2023-04-06T00:07:02;85.30;;;82.50;;
1140;SDS011;559;48.628;8.924;2023-04-06T00:09:29;77.90;;;75.45;;
1140;SDS011;559;48.628;8.924;2023-04-06T00:11:57;76.35;;;73.90;;
1140;SDS011;559;48.628;8.924;2023-04-06T00:14:24;69.82;;;67.63;;
1140;SDS011;559;48.628;8.924;2023-04-06T00:16:50;66.43;;;64.07;;
1140;SDS011;559;48.628;8.924;2023-04-06T00:19:17;63.72;;;61.58;;
1140;SDS011;559;48.628;8.924;2023-04-06T00:21:43;61.67;;;59.58;;
1140;SDS011;559;48.628;8.924;2023-04-06T00:24:10;67.47;;;65.28;;
1140;SDS011;559;48.628;8.924;2023-04-06T00:26:37;77.45;;;75.00;;
1140;SDS011;559;48.628;8.924;2023-04-06T00:29:05;89.35;;;86.32;;
1140;SDS011;559;48.628;8.924;2023-04-06T00:31:31;86.25;;;83.55;;
1140;SDS011;559;48.628;8.924;2023-04-06T00:33:58;91.20;;;88.13;;
1140;SDS011;559;48.628;8.924;2023-04-06T00:36:25;97.72;;;94.03;;
1140;SDS011;559;48.628;8.924;2023-04-06T00:38:51;98.22;;;94.95;;
1140;SDS011;559;48.628;8.924;2023-04-06T00:41:18;104.53;;;100.78;;
1140;SDS011;559;48.628;8.924;2023-04-06T00:43:45;104.32;;;100.93;;
1140;SDS011;559;48.628;8.924;2023-04-06T00:46:13;101.40;;;97.97;;
1140;SDS011;559;48.628;8.924;2023-04-06T00:48:40;87.47;;;84.75;;
1140;SDS011;559;48.628;8.924;2023-04-06T00:51:06;89.95;;;87.15;;
1140;SDS011;559;48.628;8.924;2023-04-06T00:53:33;91.75;;;89.00;;
1140;SDS011;559;48.628;8.924;2023-04-06T00:56:00;95.03;;;92.10;;
1140;SDS011;559;48.628;8.924;2023-04-06T00:58:26;92.05;;;89.25;;
1140;SDS011;559;48.628;8.924;2023-04-06T01:00:53;89.88;;;86.88;;
1140;SDS011;559;48.628;8.924;2023-04-06T01:03:21;92.00;;;88.90;;
1140;SDS011;559;48.628;8.924;2023-04-06T01:05:47;90.03;;;87.18;;
1140;SDS011;559;48.628;8.924;2023-04-06T01:08:14;88.10;;;85.40;;
1140;SDS011;559;48.628;8.924;2023-04-06T01:10:41;85.40;;;82.90;;
1140;SDS011;559;48.628;8.924;2023-04-06T01:13:07;80.43;;;77.38;;
1140;SDS011;559;48.628;8.924;2023-04-06T01:15:34;85.28;;;82.80;;
1140;SDS011;559;48.628;8.924;2023-04-06T01:18:03;93.32;;;90.28;;
1140;SDS011;559;48.628;8.924;2023-04-06T01:20:33;103.32;;;99.82;;
1140;SDS011;559;48.628;8.924;2023-04-06T01:23:01;95.78;;;92.88;;
1140;SDS011;559;48.628;8.924;2023-04-06T01:25:28;96.57;;;93.57;;
1140;SDS011;559;48.628;8.924;2023-04-06T01:27:54;97.72;;;94.63;;
1140;SDS011;559;48.628;8.924;2023-04-06T01:30:21;97.82;;;94.72;;
1140;SDS011;559;48.628;8.924;2023-04-06T01:32:48;106.80;;;103.30;;
1140;SDS011;559;48.628;8.924;2023-04-06T01:35:14;111.95;;;107.90;;
1140;SDS011;559;48.628;8.924;2023-04-06T01:37:41;113.93;;;110.13;;
1140;SDS011;559;48.628;8.924;2023-04-06T01:40:09;124.65;;;120.45;;
1140;SDS011;559;48.628;8.924;2023-04-06T01:42:37;125.63;;;121.30;;
1140;SDS011;559;48.628;8.924;2023-04-06T01:45:04;126.70;;;122.35;;
1140;SDS011;559;48.628;8.924;2023-04-06T01:47:31;118.35;;;114.45;;
1140;SDS011;559;48.628;8.924;2023-04-06T01:49:58;116.80;;;113.10;;
1140;SDS011;559;48.628;8.924;2023-04-06T01:52:24;119.20;;;115.40;;
1140;SDS011;559;48.628;8.924;2023-04-06T01:54:51;116.43;;;112.78;;
1140;SDS011;559;48.628;8.924;2023-04-06T01:57:19;116.20;;;112.63;;
1140;SDS011;559;48.628;8.924;2023-04-06T01:59:46;109.57;;;106.05;;
1140;SDS011;559;48.628;8.924;2023-04-06T02:02:12;107.70;;;104.30;;
1140;SDS011;559;48.628;8.924;2023-04-06T02:04:39;102.93;;;99.72;;
1140;SDS011;559;48.628;8.924;2023-04-06T02:07:06;102.13;;;98.90;;
1140;SDS011;559;48.628;8.924;2023-04-06T02:09:32;100.82;;;97.72;;
1140;SDS011;559;48.628;8.924;2023-04-06T02:11:59;99.72;;;96.68;;
1140;SDS011;559;48.628;8.924;2023-04-06T02:14:27;103.95;;;100.55;;
1140;SDS011;559;48.628;8.924;2023-04-06T02:16:54;109.32;;;106.03;;
1140;SDS011;559;48.628;8.924;2023-04-06T02:19:20;109.85;;;106.50;;
1140;SDS011;559;48.628;8.924;2023-04-06T02:21:47;114.65;;;111.05;;
1140;SDS011;559;48.628;8.924;2023-04-06T02:24:14;107.70;;;103.93;;
1140;SDS011;559;48.628;8.924;2023-04-06T02:26:41;107.30;;;104.00;;
1140;SDS011;559;48.628;8.924;2023-04-06T02:29:07;110.13;;;106.30;;
1140;SDS011;559;48.628;8.924;2023-04-06T02:31:36;112.82;;;109.22;;
1140;SDS011;559;48.628;8.924;2023-04-06T02:34:03;109.25;;;105.78;;
1140;SDS011;559;48.628;8.924;2023-04-06T02:36:29;104.13;;;100.93;;
1140;SDS011;559;48.628;8.924;2023-04-06T02:38:56;108.07;;;104.78;;
1140;SDS011;559;48.628;8.924;2023-04-06T02:41:23;115.18;;;111.60;;
1140;SDS011;559;48.628;8.924;2023-04-06T02:43:50;105.68;;;102.20;;
1140;SDS011;559;48.628;8.924;2023-04-06T02:46:16;110.72;;;107.32;;
1140;SDS011;559;48.628;8.924;2023-04-06T02:48:44;110.97;;;107.03;;
1140;SDS011;559;48.628;8.924;2023-04-06T02:51:11;112.13;;;108.10;;
1140;SDS011;559;48.628;8.924;2023-04-06T02:53:37;110.43;;;106.82;;
1140;SDS011;559;48.628;8.924;2023-04-06T02:56:04;111.32;;;107.53;;
1140;SDS011;559;48.628;8.924;2023-04-06T02:58:31;120.38;;;116.47;;
1140;SDS011;559;48.628;8.924;2023-04-06T03:00:58;109.50;;;105.68;;
1140;SDS011;559;48.628;8.924;2023-04-06T03:03:25;113.32;;;109.32;;
1140;SDS011;559;48.628;8.924;2023-04-06T03:05:53;116.78;;;112.75;;
1140;SDS011;559;48.628;8.924;2023-04-06T03:08:21;110.78;;;106.75;;
1140;SDS011;559;48.628;8.924;2023-04-06T03:10:48;103.95;;;100.40;;
1140;SDS011;559;48.628;8.924;2023-04-06T03:13:14;97.40;;;94.07;;
1140;SDS011;559;48.628;8.924;2023-04-06T03:15:41;94.28;;;91.25;;
1140;SDS011;559;48.628;8.924;2023-04-06T03:18:07;89.65;;;86.85;;
1140;SDS011;559;48.628;8.924;2023-04-06T03:20:34;91.55;;;88.50;;
1140;SDS011;559;48.628;8.924;2023-04-06T03:23:02;100.80;;;97.35;;
1140;SDS011;559;48.628;8.924;2023-04-06T03:25:28;109.65;;;105.95;;
1140;SDS011;559;48.628;8.924;2023-04-06T03:27:55;108.25;;;104.15;;
1140;SDS011;559;48.628;8.924;2023-04-06T03:30:22;104.10;;;100.07;;
1140;SDS011;559;48.628;8.924;2023-04-06T03:32:49;97.45;;;94.25;;
1140;SDS011;559;48.628;8.924;2023-04-06T03:35:15;102.35;;;98.95;;
1140;SDS011;559;48.628;8.924;2023-04-06T03:37:42;102.47;;;99.13;;
1140;SDS011;559;48.628;8.924;2023-04-06T03:40:10;108.00;;;103.90;;
1140;SDS011;559;48.628;8.924;2023-04-06T03:42:37;106.97;;;103.22;;
1140;SDS011;559;48.628;8.924;2023-04-06T03:45:04;104.25;;;100.55;;
1140;SDS011;559;48.628;8.924;2023-04-06T03:47:31;106.38;;;102.47;;
1140;SDS011;559;48.628;8.924;2023-04-06T03:49:58;103.82;;;99.97;;
1140;SDS011;559;48.628;8.924;2023-04-06T03:52:24;106.05;;;102.43;;
1140;SDS011;559;48.628;8.924;2023-04-06T03:54:51;107.10;;;103.55;;
1140;SDS011;559;48.628;8.924;2023-04-06T03:57:19;119.75;;;115.82;;
1140;SDS011;559;48.628;8.924;2023-04-06T03:59:46;123.47;;;118.97;;
1140;SDS011;559;48.628;8.924;2023-04-06T04:02:12;110.97;;;107.10;;
1140;SDS011;559;48.628;8.924;2023-04-06T04:04:39;106.82;;;103.13;;
1140;SDS011;559;48.628;8.924;2023-04-06T04:07:06;112.97;;;109.18;;
1140;SDS011;559;48.628;8.924;2023-04-06T04:09:32;109.70;;;106.03;;
1140;SDS011;559;48.628;8.924;2023-04-06T04:11:59;113.60;;;109.00;;
1140;SDS011;559;48.628;8.924;2023-04-06T04:14:27;115.93;;;111.57;;
1140;SDS011;559;48.628;8.924;2023-04-06T04:16:54;117.32;;;112.82;;
1140;SDS011;559;48.628;8.924;2023-04-06T04:19:20;120.88;;;116.18;;
1140;SDS011;559;48.628;8.924;2023-04-06T04:21:47;119.70;;;115.07;;
1140;SDS011;559;48.628;8.924;2023-04-06T04:24:14;120.18;;;115.47;;
1140;SDS011;559;48.628;8.924;2023-04-06T04:26:40;121.15;;;116.78;;
1140;SDS011;559;48.628;8.924;2023-04-06T04:29:07;114.82;;;110.53;;
1140;SDS011;559;48.628;8.924;2023-04-06T04:31:35;114.03;;;109.65;;
1140;SDS011;559;48.628;8.924;2023-04-06T04:34:02;116.95;;;112.43;;
1140;SDS011;559;48.628;8.924;2023-04-06T04:36:29;123.63;;;119.07;;
1140;SDS011;559;48.628;8.924;2023-04-06T04:38:55;113.85;;;109.53;;
1140;SDS011;559;48.628;8.924;2023-04-06T04:41:22;110.75;;;106.60;;
1140;SDS011;559;48.628;8.924;2023-04-06T04:43:48;105.60;;;101.75;;
1140;SDS011;559;48.628;8.924;2023-04-06T04:46:15;107.00;;;103.30;;
1140;SDS011;559;48.628;8.924;2023-04-06T04:48:43;108.40;;;104.50;;
1140;SDS011;559;48.628;8.924;2023-04-06T04:51:09;111.82;;;107.95;;
1140;SDS011;559;48.628;8.924;2023-04-06T04:53:36;108.22;;;104.53;;
1140;SDS011;559;48.628;8.924;2023-04-06T04:56:03;112.90;;;108.80;;
1140;SDS011;559;48.628;8.924;2023-04-06T04:58:30;104.45;;;100.80;;
1140;SDS011;559;48.628;8.924;2023-04-06T05:00:56;110.97;;;106.97;;
1140;SDS011;559;48.628;8.924;2023-04-06T05:03:24;106.50;;;102.55;;
1140;SDS011;559;48.628;8.924;2023-04-06T05:05:52;109.07;;;105.05;;
1140;SDS011;559;48.628;8.924;2023-04-06T05:08:19;115.28;;;110.78;;
1140;SDS011;559;48.628;8.924;2023-04-06T05:10:46;118.53;;;113.32;;
1140;SDS011;559;48.628;8.924;2023-04-06T05:13:13;117.38;;;112.68;;
1140;SDS011;559;48.628;8.924;2023-04-06T05:15:39;120.47;;;115.78;;
1140;SDS011;559;48.628;8.924;2023-04-06T05:18:06;121.90;;;117.20;;
1140;SDS011;559;48.628;8.924;2023-04-06T05:20:33;132.13;;;126.63;;
1140;SDS011;559;48.628;8.924;2023-04-06T05:23:01;128.63;;;123.32;;
1140;SDS011;559;48.628;8.924;2023-04-06T05:25:28;129.30;;;124.10;;
1140;SDS011;559;48.628;8.924;2023-04-06T05:27:55;123.05;;;117.63;;
1140;SDS011;559;48.628;8.924;2023-04-06T05:30:21;130.80;;;125.30;;
1140;SDS011;559;48.628;8.924;2023-04-06T05:32:48;128.77;;;123.57;;
1140;SDS011;559;48.628;8.924;2023-04-06T05:35:15;125.35;;;120.55;;
1140;SDS011;559;48.628;8.924;2023-04-06T05:37:42;122.30;;;117.40;;
1140;SDS011;559;48.628;8.924;2023-04-06T05:40:10;123.15;;;117.75;;
1140;SDS011;559;48.628;8.924;2023-04-06T05:42:37;116.57;;;111.85;;
1140;SDS011;559;48.628;8.924;2023-04-06T05:45:04;118.30;;;114.10;;
1140;SDS011;559;48.628;8.924;2023-04-06T05:47:31;110.85;;;106.80;;
1140;SDS011;559;48.628;8.924;2023-04-06T05:49:58;113.97;;;109.30;;
1140;SDS011;559;48.628;8.924;2023-04-06T05:52:24;118.90;;;114.47;;
1140;SDS011;559;48.628;8.924;2023-04-06T05:54:51;111.60;;;107.50;;
1140;SDS011;559;48.628;8.924;2023-04-06T05:57:19;109.38;;;105.07;;
1140;SDS011;559;48.628;8.924;2023-04-06T05:59:46;120.15;;;115.57;;
1140;SDS011;559;48.628;8.924;2023-04-06T06:02:12;107.72;;;103.55;;
1140;SDS011;559;48.628;8.924;2023-04-06T06:04:39;112.03;;;107.80;;
1140;SDS011;559;48.628;8.924;2023-04-06T06:07:05;103.57;;;99.63;;
1140;SDS011;559;48.628;8.924;2023-04-06T06:09:32;105.85;;;101.97;;
1140;SDS011;559;48.628;8.924;2023-04-06T06:11:59;104.25;;;100.15;;
1140;SDS011;559;48.628;8.924;2023-04-06T06:14:27;102.57;;;98.25;;
1140;SDS011;559;48.628;8.924;2023-04-06T06:16:54;102.78;;;98.55;;
1140;SDS011;559;48.628;8.924;2023-04-06T06:19:21;93.70;;;89.65;;
1140;SDS011;559;48.628;8.924;2023-04-06T06:21:47;89.13;;;85.30;;
1140;SDS011;559;48.628;8.924;2023-04-06T06:24:14;85.88;;;82.28;;
1140;SDS011;559;48.628;8.924;2023-04-06T06:26:41;83.07;;;80.07;;
1140;SDS011;559;48.628;8.924;2023-04-06T06:29:08;82.30;;;79.10;;
1140;SDS011;559;48.628;8.924;2023-04-06T06:31:36;77.82;;;74.72;;
1140;SDS011;559;48.628;8.924;2023-04-06T06:34:02;80.22;;;77.32;;
1140;SDS011;559;48.628;8.924;2023-04-06T06:36:29;69.53;;;67.05;;
1140;SDS011;559;48.628;8.924;2023-04-06T06:38:56;61.47;;;59.08;;
1140;SDS011;559;48.628;8.924;2023-04-06T06:41:23;57.10;;;54.75;;
1140;SDS011;559;48.628;8.924;2023-04-06T06:43:50;56.75;;;54.35;;
1140;SDS011;559;48.628;8.924;2023-04-06T06:46:16;51.45;;;49.25;;
1140;SDS011;559;48.628;8.924;2023-04-06T06:48:44;49.40;;;46.63;;
1140;SDS011;559;48.628;8.924;2023-04-06T06:51:11;44.17;;;41.90;;
1140;SDS011;559;48.628;8.924;2023-04-06T06:53:38;38.60;;;36.92;;
1140;SDS011;559;48.628;8.924;2023-04-06T06:56:04;33.78;;;32.08;;
1140;SDS011;559;48.628;8.924;2023-04-06T06:58:31;29.73;;;27.48;;
1140;SDS011;559;48.628;8.924;2023-04-06T07:00:58;29.33;;;27.83;;
1140;SDS011;559;48.628;8.924;2023-04-06T07:03:25;30.52;;;28.90;;
1140;SDS011;559;48.628;8.924;2023-04-06T07:05:53;30.75;;;29.10;;
1140;SDS011;559;48.628;8.924;2023-04-06T07:08:19;35.10;;;33.17;;
1140;SDS011;559;48.628;8.924;2023-04-06T07:10:46;33.03;;;30.98;;
1140;SDS011;559;48.628;8.924;2023-04-06T07:13:13;33.30;;;31.70;;
1140;SDS011;559;48.628;8.924;2023-04-06T07:15:44;30.85;;;29.15;;
1140;SDS011;559;48.628;8.924;2023-04-06T07:18:10;25.52;;;23.70;;
1140;SDS011;559;48.628;8.924;2023-04-06T07:20:37;29.13;;;27.83;;
1140;SDS011;559;48.628;8.924;2023-04-06T07:23:05;27.63;;;26.23;;
1140;SDS011;559;48.628;8.924;2023-04-06T07:25:32;26.80;;;24.85;;
1140;SDS011;559;48.628;8.924;2023-04-06T07:27:59;22.92;;;21.35;;
1140;SDS011;559;48.628;8.924;2023-04-06T07:30:25;20.77;;;19.52;;
1140;SDS011;559;48.628;8.924;2023-04-06T07:32:53;29.27;;;27.48;;
1140;SDS011;559;48.628;8.924;2023-04-06T07:35:21;23.83;;;22.20;;
1140;SDS011;559;48.628;8.924;2023-04-06T07:37:47;23.63;;;22.08;;
1140;SDS011;559;48.628;8.924;2023-04-06T07:40:16;25.95;;;24.55;;
1140;SDS011;559;48.628;8.924;2023-04-06T07:42:43;25.38;;;23.92;;
1140;SDS011;559;48.628;8.924;2023-04-06T07:45:09;25.65;;;24.10;;
1140;SDS011;559;48.628;8.924;2023-04-06T07:47:36;26.15;;;24.75;;
1140;SDS011;559;48.628;8.924;2023-04-06T07:50:03;21.92;;;20.52;;
1140;SDS011;559;48.628;8.924;2023-04-06T07:52:30;20.02;;;18.63;;
1140;SDS011;559;48.628;8.924;2023-04-06T07:54:57;18.90;;;17.70;;
1140;SDS011;559;48.628;8.924;2023-04-06T07:57:25;14.30;;;13.00;;
1140;SDS011;559;48.628;8.924;2023-04-06T07:59:52;13.10;;;12.00;;
1140;SDS011;559;48.628;8.924;2023-04-06T08:02:18;11.25;;;10.45;;
1140;SDS011;559;48.628;8.924;2023-04-06T08:04:45;11.43;;;10.35;;
1140;SDS011;559;48.628;8.924;2023-04-06T08:07:12;10.75;;;9.68;;
1140;SDS011;559;48.628;8.924;2023-04-06T08:09:38;16.63;;;9.07;;
1140;SDS011;559;48.628;8.924;2023-04-06T08:12:05;12.05;;;9.25;;
1140;SDS011;559;48.628;8.924;2023-04-06T08:14:33;9.77;;;8.50;;
1140;SDS011;559;48.628;8.924;2023-04-06T08:17:00;11.50;;;8.90;;
1140;SDS011;559;48.628;8.924;2023-04-06T08:19:26;11.52;;;9.30;;
1140;SDS011;559;48.628;8.924;2023-04-06T08:21:53;9.02;;;8.23;;
1140;SDS011;559;48.628;8.924;2023-04-06T08:24:20;10.85;;;8.18;;
1140;SDS011;559;48.628;8.924;2023-04-06T08:26:46;8.60;;;7.78;;
1140;SDS011;559;48.628;8.924;2023-04-06T08:29:13;9.75;;;7.70;;
1140;SDS011;559;48.628;8.924;2023-04-06T08:31:41;10.80;;;8.57;;
1140;SDS011;559;48.628;8.924;2023-04-06T08:34:07;10.65;;;8.10;;
1140;SDS011;559;48.628;8.924;2023-04-06T08:36:34;13.18;;;8.68;;
1140;SDS011;559;48.628;8.924;2023-04-06T08:39:00;10.38;;;8.68;;
1140;SDS011;559;48.628;8.924;2023-04-06T08:41:27;10.52;;;9.07;;
1140;SDS011;559;48.628;8.924;2023-04-06T08:43:55;8.30;;;7.43;;
1140;SDS011;559;48.628;8.924;2023-04-06T08:46:23;8.43;;;7.55;;
1140;SDS011;559;48.628;8.924;2023-04-06T08:48:56;9.73;;;8.43;;
1140;SDS011;559;48.628;8.924;2023-04-06T08:51:23;11.50;;;8.70;;
1140;SDS011;559;48.628;8.924;2023-04-06T08:53:50;10.52;;;8.57;;
1140;SDS011;559;48.628;8.924;2023-04-06T08:56:19;9.20;;;8.30;;
1140;SDS011;559;48.628;8.924;2023-04-06T08:58:46;9.93;;;8.52;;
1140;SDS011;559;48.628;8.924;2023-04-06T09:01:13;7.90;;;7.10;;
1140;SDS011;559;48.628;8.924;2023-04-06T09:03:40;9.07;;;8.13;;
1140;SDS011;559;48.628;8.924;2023-04-06T09:06:10;12.70;;;6.75;;
1140;SDS011;559;48.628;8.924;2023-04-06T09:08:38;9.82;;;8.00;;
1140;SDS011;559;48.628;8.924;2023-04-06T09:11:05;9.20;;;7.50;;
1140;SDS011;559;48.628;8.924;2023-04-06T09:13:43;9.55;;;6.60;;
1140;SDS011;559;48.628;8.924;2023-04-06T09:16:10;9.50;;;7.80;;
1140;SDS011;559;48.628;8.924;2023-04-06T09:18:37;11.27;;;6.90;;
1140;SDS011;559;48.628;8.924;2023-04-06T09:21:05;8.68;;;7.82;;
1140;SDS011;559;48.628;8.924;2023-04-06T09:23:34;7.80;;;6.88;;
1140;SDS011;559;48.628;8.924;2023-04-06T09:26:07;7.65;;;6.95;;
1140;SDS011;559;48.628;8.924;2023-04-06T09:28:45;8.55;;;7.75;;
1140;SDS011;559;48.628;8.924;2023-04-06T09:31:14;10.95;;;7.85;;
1140;SDS011;559;48.628;8.924;2023-04-06T09:33:44;8.90;;;7.95;;
1140;SDS011;559;48.628;8.924;2023-04-06T09:36:11;9.50;;;6.57;;
1140;SDS011;559;48.628;8.924;2023-04-06T09:38:52;10.27;;;7.85;;
1140;SDS011;559;48.628;8.924;2023-04-06T09:41:23;8.27;;;7.38;;
1140;SDS011;559;48.628;8.924;2023-04-06T09:43:50;10.73;;;7.25;;
1140;SDS011;559;48.628;8.924;2023-04-06T09:46:18;13.88;;;7.07;;
1140;SDS011;559;48.628;8.924;2023-04-06T09:48:47;9.05;;;8.15;;
1140;SDS011;559;48.628;8.924;2023-04-06T09:51:16;9.50;;;8.35;;
1140;SDS011;559;48.628;8.924;2023-04-06T09:53:44;8.90;;;7.03;;
1140;SDS011;559;48.628;8.924;2023-04-06T09:56:17;10.25;;;7.55;;
1140;SDS011;559;48.628;8.924;2023-04-06T09:58:48;7.85;;;6.95;;
1140;SDS011;559;48.628;8.924;2023-04-06T10:01:16;9.00;;;7.78;;
1140;SDS011;559;48.628;8.924;2023-04-06T10:03:49;10.02;;;6.80;;
1140;SDS011;559;48.628;8.924;2023-04-06T10:06:19;8.50;;;7.47;;
1140;SDS011;559;48.628;8.924;2023-04-06T10:08:48;10.18;;;6.82;;
1140;SDS011;559;48.628;8.924;2023-04-06T10:11:17;7.18;;;6.10;;
1140;SDS011;559;48.628;8.924;2023-04-06T10:13:44;8.95;;;6.32;;
1140;SDS011;559;48.628;8.924;2023-04-06T10:16:12;7.93;;;7.15;;
1140;SDS011;559;48.628;8.924;2023-04-06T10:18:39;7.95;;;7.15;;
1140;SDS011;559;48.628;8.924;2023-04-06T10:21:09;7.43;;;6.63;;
1140;SDS011;559;48.628;8.924;2023-04-06T10:23:39;10.40;;;7.75;;
1140;SDS011;559;48.628;8.924;2023-04-06T10:26:12;11.57;;;8.35;;
1140;SDS011;559;48.628;8.924;2023-04-06T10:28:41;7.45;;;6.65;;
1140;SDS011;559;48.628;8.924;2023-04-06T10:31:08;7.88;;;7.07;;
1140;SDS011;559;48.628;8.924;2023-04-06T10:33:35;8.90;;;7.25;;
1140;SDS011;559;48.628;8.924;2023-04-06T10:36:09;7.55;;;6.78;;
1140;SDS011;559;48.628;8.924;2023-04-06T10:38:37;9.60;;;6.80;;
1140;SDS011;559;48.628;8.924;2023-04-06T10:41:05;11.18;;;7.78;;
1140;SDS011;559;48.628;8.924;2023-04-06T10:43:33;10.30;;;7.65;;
1140;SDS011;559;48.628;8.924;2023-04-06T10:46:01;8.05;;;7.32;;
1140;SDS011;559;48.628;8.924;2023-04-06T10:48:36;7.90;;;6.68;;
1140;SDS011;559;48.628;8.924;2023-04-06T10:51:06;8.77;;;7.88;;
1140;SDS011;559;48.628;8.924;2023-04-06T10:53:34;7.90;;;7.15;;
1140;SDS011;559;48.628;8.924;2023-04-06T10:56:01;6.82;;;6.22;;
1140;SDS011;559;48.628;8.924;2023-04-06T10:58:29;9.82;;;6.55;;
1140;SDS011;559;48.628;8.924;2023-04-06T11:00:56;10.25;;;7.03;;
1140;SDS011;559;48.628;8.924;2023-04-06T11:03:24;7.75;;;6.95;;
1140;SDS011;559;48.628;8.924;2023-04-06T11:05:51;8.52;;;6.70;;
1140;SDS011;559;48.628;8.924;2023-04-06T11:08:25;8.13;;;6.13;;
1140;SDS011;559;48.628;8.924;2023-04-06T11:10:52;7.78;;;6.97;;
1140;SDS011;559;48.628;8.924;2023-04-06T11:13:18;8.48;;;7.15;;
1140;SDS011;559;48.628;8.924;2023-04-06T11:15:45;8.15;;;6.97;;
1140;SDS011;559;48.628;8.924;2023-04-06T11:18:16;6.85;;;6.22;;
1140;SDS011;559;48.628;8.924;2023-04-06T11:20:48;7.88;;;6.55;;
1140;SDS011;559;48.628;8.924;2023-04-06T11:23:21;6.90;;;6.20;;
1140;SDS011;559;48.628;8.924;2023-04-06T11:25:50;5.85;;;5.05;;
1140;SDS011;559;48.628;8.924;2023-04-06T11:28:17;6.22;;;5.40;;
1140;SDS011;559;48.628;8.924;2023-04-06T11:30:44;7.25;;;6.20;;
1140;SDS011;559;48.628;8.924;2023-04-06T11:33:11;7.20;;;5.47;;
1140;SDS011;559;48.628;8.924;2023-04-06T11:35:47;6.15;;;5.60;;
1140;SDS011;559;48.628;8.924;2023-04-06T11:38:14;5.90;;;5.40;;
1140;SDS011;559;48.628;8.924;2023-04-06T11:40:41;8.38;;;6.18;;
1140;SDS011;559;48.628;8.924;2023-04-06T11:43:10;6.15;;;5.53;;
1140;SDS011;559;48.628;8.924;2023-04-06T11:45:41;5.75;;;5.20;;
1140;SDS011;559;48.628;8.924;2023-04-06T11:48:17;5.70;;;5.00;;
1140;SDS011;559;48.628;8.924;2023-04-06T11:50:45;8.20;;;6.15;;
1140;SDS011;559;48.628;8.924;2023-04-06T11:53:14;5.60;;;5.05;;
1140;SDS011;559;48.628;8.924;2023-04-06T11:55:40;5.97;;;4.97;;
1140;SDS011;559;48.628;8.924;2023-04-06T11:58:10;5.45;;;4.75;;
1140;SDS011;559;48.628;8.924;2023-04-06T12:00:36;5.43;;;5.03;;
1140;SDS011;559;48.628;8.924;2023-04-06T12:03:03;6.40;;;5.43;;
1140;SDS011;559;48.628;8.924;2023-04-06T12:05:29;5.03;;;4.55;;
1140;SDS011;559;48.628;8.924;2023-04-06T12:07:58;5.00;;;4.38;;
1140;SDS011;559;48.628;8.924;2023-04-06T12:10:25;5.10;;;4.70;;
1140;SDS011;559;48.628;8.924;2023-04-06T12:12:51;4.82;;;4.43;;
1140;SDS011;559;48.628;8.924;2023-04-06T12:15:18;5.00;;;4.50;;
1140;SDS011;559;48.628;8.924;2023-04-06T12:17:45;4.00;;;3.60;;
1140;SDS011;559;48.628;8.924;2023-04-06T12:20:11;5.72;;;4.70;;
1140;SDS011;559;48.628;8.924;2023-04-06T12:22:38;4.50;;;3.90;;
1140;SDS011;559;48.628;8.924;2023-04-06T12:25:07;4.85;;;3.80;;
1140;SDS011;559;48.628;8.924;2023-04-06T12:27:34;4.87;;;4.47;;
1140;SDS011;559;48.628;8.924;2023-04-06T12:30:00;5.90;;;5.40;;
1140;SDS011;559;48.628;8.924;2023-04-06T12:32:27;5.87;;;5.20;;
1140;SDS011;559;48.628;8.924;2023-04-06T12:34:54;6.17;;;5.57;;
1140;SDS011;559;48.628;8.924;2023-04-06T12:37:21;7.25;;;6.55;;
1140;SDS011;559;48.628;8.924;2023-04-06T12:39:47;5.87;;;5.20;;
1140;SDS011;559;48.628;8.924;2023-04-06T12:42:15;7.20;;;6.40;;
1140;SDS011;559;48.628;8.924;2023-04-06T12:44:42;10.60;;;6.10;;
1140;SDS011;559;48.628;8.924;2023-04-06T12:47:08;8.20;;;5.90;;
1140;SDS011;559;48.628;8.924;2023-04-06T12:49:36;9.50;;;5.60;;
1140;SDS011;559;48.628;8.924;2023-04-06T12:52:02;7.90;;;5.60;;
1140;SDS011;559;48.628;8.924;2023-04-06T12:54:29;5.13;;;4.73;;
1140;SDS011;559;48.628;8.924;2023-04-06T12:56:56;7.80;;;6.20;;
1140;SDS011;559;48.628;8.924;2023-04-06T12:59:24;8.10;;;5.80;;
1140;SDS011;559;48.628;8.924;2023-04-06T13:01:50;7.03;;;6.43;;
1140;SDS011;559;48.628;8.924;2023-04-06T13:04:17;9.20;;;5.37;;
1140;SDS011;559;48.628;8.924;2023-04-06T13:06:44;7.47;;;6.40;;
1140;SDS011;559;48.628;8.924;2023-04-06T13:09:11;8.27;;;5.67;;
1140;SDS011;559;48.628;8.924;2023-04-06T13:11:37;6.60;;;5.10;;
1140;SDS011;559;48.628;8.924;2023-04-06T13:14:06;7.10;;;6.50;;
1140;SDS011;559;48.628;8.924;2023-04-06T13:16:34;7.28;;;5.75;;
1140;SDS011;559;48.628;8.924;2023-04-06T13:19:01;6.43;;;5.73;;
1140;SDS011;559;48.628;8.924;2023-04-06T13:21:28;6.63;;;5.93;;
1140;SDS011;559;48.628;8.924;2023-04-06T13:23:55;6.83;;;6.23;;
1140;SDS011;559;48.628;8.924;2023-04-06T13:26:22;6.87;;;6.17;;
1140;SDS011;559;48.628;8.924;2023-04-06T13:28:48;8.33;;;5.97;;
1140;SDS011;559;48.628;8.924;2023-04-06T13:31:15;7.60;;;5.67;;
1140;SDS011;559;48.628;8.924;2023-04-06T13:33:43;6.40;;;5.90;;
1140;SDS011;559;48.628;8.924;2023-04-06T13:36:10;6.80;;;6.10;;
1140;SDS011;559;48.628;8.924;2023-04-06T13:38:36;7.30;;;5.90;;
1140;SDS011;559;48.628;8.924;2023-04-06T13:41:04;7.60;;;6.40;;
1140;SDS011;559;48.628;8.924;2023-04-06T13:43:31;6.23;;;5.63;;
1140;SDS011;559;48.628;8.924;2023-04-06T13:46:00;8.17;;;7.47;;
1140;SDS011;559;48.628;8.924;2023-04-06T13:48:26;6.63;;;5.93;;
1140;SDS011;559;48.628;8.924;2023-04-06T13:50:54;8.27;;;6.40;;
1140;SDS011;559;48.628;8.924;2023-04-06T13:53:21;9.23;;;5.87;;
1140;SDS011;559;48.628;8.924;2023-04-06T13:55:54;7.17;;;6.47;;
1140;SDS011;559;48.628;8.924;2023-04-06T13:58:21;6.53;;;5.90;;
1140;SDS011;559;48.628;8.924;2023-04-06T14:00:51;7.00;;;5.57;;
1140;SDS011;559;48.628;8.924;2023-04-06T14:03:18;6.87;;;6.20;;
1140;SDS011;559;48.628;8.924;2023-04-06T14:05:47;7.37;;;6.67;;
1140;SDS011;559;48.628;8.924;2023-04-06T14:08:15;7.83;;;6.23;;
1140;SDS011;559;48.628;8.924;2023-04-06T14:10:42;6.23;;;5.63;;
1140;SDS011;559;48.628;8.924;2023-04-06T14:13:09;6.77;;;6.07;;
1140;SDS011;559;48.628;8.924;2023-04-06T14:15:36;6.00;;;5.47;;
1140;SDS011;559;48.628;8.924;2023-04-06T14:18:03;6.10;;;5.47;;
1140;SDS011;559;48.628;8.924;2023-04-06T14:20:30;9.70;;;6.80;;
1140;SDS011;559;48.628;8.924;2023-04-06T14:22:59;7.33;;;6.07;;
1140;SDS011;559;48.628;8.924;2023-04-06T14:25:27;6.40;;;5.80;;
1140;SDS011;559;48.628;8.924;2023-04-06T14:27:56;8.32;;;5.90;;
1140;SDS011;559;48.628;8.924;2023-04-06T14:30:23;8.43;;;6.87;;
1140;SDS011;559;48.628;8.924;2023-04-06T14:32:49;9.02;;;5.72;;
1140;SDS011;559;48.628;8.924;2023-04-06T14:35:16;10.33;;;6.50;;
1140;SDS011;559;48.628;8.924;2023-04-06T14:37:42;6.53;;;5.93;;
1140;SDS011;559;48.628;8.924;2023-04-06T14:40:09;7.30;;;5.13;;
1140;SDS011;559;48.628;8.924;2023-04-06T14:42:38;7.20;;;6.00;;
1140;SDS011;559;48.628;8.924;2023-04-06T14:45:05;6.30;;;5.80;;
1140;SDS011;559;48.628;8.924;2023-04-06T14:47:32;4.80;;;4.40;;
1140;SDS011;559;48.628;8.924;2023-04-06T14:49:59;11.83;;;6.20;;
1140;SDS011;559;48.628;8.924;2023-04-06T14:52:25;6.45;;;5.72;;
1140;SDS011;559;48.628;8.924;2023-04-06T14:54:52;7.80;;;5.70;;
1140;SDS011;559;48.628;8.924;2023-04-06T14:57:18;8.00;;;6.73;;
1140;SDS011;559;48.628;8.924;2023-04-06T14:59:47;6.77;;;5.97;;
1140;SDS011;559;48.628;8.924;2023-04-06T15:02:14;8.80;;;6.88;;
1140;SDS011;559;48.628;8.924;2023-04-06T15:04:42;5.33;;;4.93;;
1140;SDS011;559;48.628;8.924;2023-04-06T15:07:09;6.18;;;5.15;;